createdAt,value
2019-05-01T00:00:45.012Z,10.80
2019-05-01T00:03:26.858Z,10.80
2019-05-01T00:05:56.948Z,10.70
2019-05-01T00:08:25.475Z,10.80
2019-05-01T00:10:54.063Z,10.80
2019-05-01T00:13:22.591Z,10.70
2019-05-01T00:15:51.548Z,10.70
2019-05-01T00:18:20.083Z,10.70
2019-05-01T00:20:48.527Z,10.50
2019-05-01T00:23:16.983Z,10.40
2019-05-01T00:25:45.447Z,10.40
2019-05-01T00:28:14.436Z,10.40
2019-05-01T00:30:42.968Z,10.40
2019-05-01T00:33:11.486Z,10.40
2019-05-01T00:35:40.002Z,10.50
2019-05-01T00:38:08.458Z,10.50
2019-05-01T00:40:36.911Z,10.50
2019-05-01T00:43:05.443Z,10.60
2019-05-01T00:45:33.887Z,10.40
2019-05-01T00:48:02.350Z,10.30
2019-05-01T00:50:30.845Z,10.20
2019-05-01T00:52:59.339Z,10.30
2019-05-01T00:55:47.663Z,10.30
2019-05-01T00:58:23.695Z,10.20
2019-05-01T01:01:10.283Z,10.40
2019-05-01T01:03:40.025Z,10.50
2019-05-01T01:06:09.235Z,10.50
2019-05-01T01:08:37.697Z,10.50
2019-05-01T01:11:06.373Z,10.50
2019-05-01T01:13:34.815Z,10.40
2019-05-01T01:16:03.352Z,10.30
2019-05-01T01:18:31.881Z,10.30
2019-05-01T01:21:00.411Z,10.30
2019-05-01T01:23:29.116Z,10.20
2019-05-01T01:25:57.902Z,10.10
2019-05-01T01:28:26.502Z,10.00
2019-05-01T01:30:56.454Z,10.20
2019-05-01T01:33:25.283Z,10.20
2019-05-01T01:35:53.739Z,10.30
2019-05-01T01:38:22.263Z,10.30
2019-05-01T01:40:50.849Z,10.30
2019-05-01T01:43:36.034Z,10.20
2019-05-01T01:46:06.266Z,10.10
2019-05-01T01:48:34.868Z,10.00
2019-05-01T01:51:03.467Z,9.90
2019-05-01T01:53:32.947Z,9.70
2019-05-01T01:56:01.475Z,9.60
2019-05-01T01:58:30.363Z,9.70
2019-05-01T02:01:09.493Z,9.60
2019-05-01T02:03:38.404Z,9.60
2019-05-01T02:06:06.928Z,9.40
2019-05-01T02:08:35.512Z,9.30
2019-05-01T02:11:04.307Z,9.10
2019-05-01T02:13:32.886Z,8.90
2019-05-01T02:16:01.350Z,8.80
2019-05-01T02:18:29.806Z,8.70
2019-05-01T02:20:58.263Z,8.60
2019-05-01T02:23:26.723Z,8.50
2019-05-01T02:25:55.675Z,8.30
2019-05-01T02:28:37.661Z,8.30
2019-05-01T02:31:29.291Z,8.30
2019-05-01T02:33:55.594Z,8.50
2019-05-01T02:36:25.521Z,8.60
2019-05-01T02:38:55.517Z,8.50
2019-05-01T02:41:27.050Z,8.30
2019-05-01T02:43:58.655Z,8.20
2019-05-01T02:46:28.808Z,8.10
2019-05-01T02:49:18.303Z,8.00
2019-05-01T02:51:47.488Z,7.90
2019-05-01T02:54:18.851Z,7.90
2019-05-01T02:56:56.907Z,7.80
2019-05-01T02:59:27.359Z,8.10
2019-05-01T03:01:56.162Z,8.00
2019-05-01T03:04:24.881Z,7.70
2019-05-01T03:06:53.752Z,7.60
2019-05-01T03:09:23.435Z,7.50
2019-05-01T03:11:54.083Z,7.50
2019-05-01T03:14:25.656Z,7.50
2019-05-01T03:16:57.646Z,7.50
2019-05-01T03:19:31.547Z,7.40
2019-05-01T03:22:02.338Z,7.40
2019-05-01T03:24:31.279Z,7.40
2019-05-01T03:26:59.798Z,7.40
2019-05-01T03:29:28.644Z,7.50
2019-05-01T03:32:16.003Z,7.40
2019-05-01T03:34:28.556Z,7.20
2019-05-01T03:36:57.439Z,7.10
2019-05-01T03:39:26.610Z,7.00
2019-05-01T03:41:55.143Z,7.10
2019-05-01T03:44:28.626Z,7.20
2019-05-01T03:46:57.720Z,7.40
2019-05-01T03:49:26.581Z,7.40
2019-05-01T03:51:55.119Z,7.10
2019-05-01T03:54:23.992Z,6.80
2019-05-01T03:56:52.588Z,6.70
2019-05-01T03:59:21.656Z,6.60
2019-05-01T04:01:55.144Z,6.40
2019-05-01T04:04:25.466Z,6.50
2019-05-01T04:06:54.624Z,6.40
2019-05-01T04:09:23.322Z,6.60
2019-05-01T04:11:52.373Z,6.60
2019-05-01T04:14:21.154Z,6.50
2019-05-01T04:16:51.847Z,6.50
2019-05-01T04:19:20.374Z,6.50
2019-05-01T04:21:50.823Z,6.50
2019-05-01T04:24:19.412Z,6.50
2019-05-01T04:26:48.576Z,6.50
2019-05-01T04:29:18.935Z,6.50
2019-05-01T04:31:49.347Z,6.50
2019-05-01T04:34:32.090Z,6.50
2019-05-01T04:37:05.941Z,6.60
2019-05-01T04:39:35.010Z,6.70
2019-05-01T04:42:03.658Z,6.70
2019-05-01T04:44:32.283Z,6.90
2019-05-01T04:47:01.040Z,7.10
2019-05-01T04:49:29.972Z,7.10
2019-05-01T04:51:58.584Z,7.10
2019-05-01T04:54:27.251Z,7.10
2019-05-01T04:56:56.539Z,7.10
2019-05-01T04:59:25.493Z,7.20
2019-05-01T05:01:58.702Z,7.30
2019-05-01T05:04:27.656Z,7.40
2019-05-01T05:06:56.539Z,7.50
2019-05-01T05:09:46.231Z,7.60
2019-05-01T05:12:19.840Z,7.70
2019-05-01T05:14:52.866Z,7.90
2019-05-01T05:17:26.185Z,7.90
2019-05-01T05:19:56.041Z,8.00
2019-05-01T05:22:25.044Z,8.10
2019-05-01T05:24:54.524Z,8.20
2019-05-01T05:27:24.924Z,8.30
2019-05-01T05:29:56.444Z,8.40
2019-05-01T05:32:27.095Z,8.50
2019-05-01T05:34:58.634Z,8.60
2019-05-01T05:37:31.227Z,8.80
2019-05-01T05:40:01.334Z,9.00
2019-05-01T05:42:30.613Z,9.20
2019-05-01T05:44:59.546Z,9.40
2019-05-01T05:47:28.067Z,9.60
2019-05-01T05:49:56.966Z,9.80
2019-05-01T05:52:37.738Z,10.30
2019-05-01T05:55:11.443Z,10.60
2019-05-01T05:57:56.691Z,10.80
2019-05-01T06:00:34.226Z,11.00
2019-05-01T06:03:06.459Z,11.20
2019-05-01T06:05:38.603Z,11.40
2019-05-01T06:08:12.327Z,11.50
2019-05-01T06:10:53.703Z,11.60
2019-05-01T06:13:25.370Z,11.60
2019-05-01T06:15:55.660Z,11.70
2019-05-01T06:18:34.821Z,11.80
2019-05-01T06:21:04.059Z,11.90
2019-05-01T06:23:52.818Z,11.80
2019-05-01T06:26:37.062Z,11.90
2019-05-01T06:29:03.074Z,12.00
2019-05-01T06:31:32.183Z,12.10
2019-05-01T06:34:01.175Z,12.10
2019-05-01T06:36:29.962Z,12.20
2019-05-01T06:39:00.166Z,12.30
2019-05-01T06:41:33.873Z,12.40
2019-05-01T06:44:04.047Z,12.40
2019-05-01T06:46:37.856Z,12.40
2019-05-01T06:49:08.292Z,12.50
2019-05-01T06:51:42.058Z,12.60
2019-05-01T06:54:16.301Z,12.60
2019-05-01T06:56:44.404Z,12.60
2019-05-01T06:59:14.396Z,12.70
2019-05-01T07:01:43.756Z,12.70
2019-05-01T07:04:14.177Z,12.70
2019-05-01T07:06:43.145Z,12.80
2019-05-01T07:09:13.048Z,12.70
2019-05-01T07:11:47.635Z,12.80
2019-05-01T07:14:16.484Z,12.80
2019-05-01T07:16:43.324Z,12.90
2019-05-01T07:19:12.130Z,12.90
2019-05-01T07:21:40.711Z,13.00
2019-05-01T07:24:09.247Z,13.00
2019-05-01T07:26:37.762Z,13.00
2019-05-01T07:29:09.891Z,13.20
2019-05-01T07:31:38.414Z,13.20
2019-05-01T07:34:16.293Z,13.30
2019-05-01T07:36:37.459Z,13.30
2019-05-01T07:39:09.864Z,13.40
2019-05-01T07:41:38.851Z,13.40
2019-05-01T07:44:11.963Z,13.50
2019-05-01T07:46:42.209Z,13.60
2019-05-01T07:49:13.130Z,13.90
2019-05-01T07:51:43.488Z,13.90
2019-05-01T07:54:12.134Z,14.10
2019-05-01T07:56:40.674Z,14.10
2019-05-01T07:59:09.345Z,14.10
2019-05-01T08:01:39.432Z,14.20
2019-05-01T08:04:07.963Z,14.30
2019-05-01T08:06:36.416Z,14.40
2019-05-01T08:09:05.959Z,14.40
2019-05-01T08:11:34.511Z,14.50
2019-05-01T08:14:07.542Z,14.60
2019-05-01T08:16:33.135Z,14.40
2019-05-01T08:19:04.163Z,14.20
2019-05-01T08:21:46.458Z,14.10
2019-05-01T08:24:17.877Z,14.10
2019-05-01T08:26:45.986Z,14.20
2019-05-01T08:29:31.299Z,14.10
2019-05-01T08:32:17.505Z,14.30
2019-05-01T08:34:49.077Z,14.50
2019-05-01T08:37:17.871Z,14.60
2019-05-01T08:39:47.050Z,14.90
2019-05-01T08:42:15.499Z,14.80
2019-05-01T08:45:05.129Z,14.90
2019-05-01T08:47:32.902Z,14.70
2019-05-01T08:50:11.759Z,14.80
2019-05-01T08:52:42.708Z,15.00
2019-05-01T08:55:10.942Z,15.00
2019-05-01T08:57:39.751Z,15.00
2019-05-01T09:00:09.187Z,14.90
2019-05-01T09:02:41.545Z,15.10
2019-05-01T09:05:27.043Z,15.30
2019-05-01T09:07:38.240Z,15.20
2019-05-01T09:10:09.107Z,15.30
2019-05-01T09:12:37.310Z,15.40
2019-05-01T09:15:12.479Z,15.60
2019-05-01T09:17:37.562Z,15.90
2019-05-01T09:20:06.846Z,16.10
2019-05-01T09:22:35.503Z,16.20
2019-05-01T09:25:04.680Z,15.60
2019-05-01T09:27:40.482Z,15.60
2019-05-01T09:30:26.820Z,15.70
2019-05-01T09:32:55.409Z,15.80
2019-05-01T09:35:24.346Z,16.10
2019-05-01T09:37:52.811Z,16.00
2019-05-01T09:40:21.324Z,15.90
2019-05-01T09:42:49.955Z,15.90
2019-05-01T09:45:18.764Z,15.70
2019-05-01T09:47:47.351Z,15.80
2019-05-01T09:50:16.349Z,15.90
2019-05-01T09:52:55.184Z,15.80
2019-05-01T09:55:27.138Z,15.90
2019-05-01T09:57:55.599Z,16.00
2019-05-01T10:00:26.635Z,16.20
2019-05-01T10:02:55.301Z,16.40
2019-05-01T10:05:29.040Z,16.40
2019-05-01T10:07:54.009Z,16.40
2019-05-01T10:10:24.858Z,16.50
2019-05-01T10:12:52.779Z,16.60
2019-05-01T10:15:21.315Z,16.70
2019-05-01T10:17:49.766Z,16.70
2019-05-01T10:20:18.223Z,16.80
2019-05-01T10:22:46.671Z,16.70
2019-05-01T10:25:15.399Z,16.80
2019-05-01T10:27:45.496Z,17.00
2019-05-01T10:30:31.801Z,17.00
2019-05-01T10:33:05.322Z,17.10
2019-05-01T10:35:44.739Z,17.20
2019-05-01T10:38:13.211Z,17.20
2019-05-01T10:40:41.727Z,17.40
2019-05-01T10:43:10.261Z,17.20
2019-05-01T10:45:38.848Z,17.30
2019-05-01T10:48:07.311Z,17.30
2019-05-01T10:50:36.723Z,17.30
2019-05-01T10:53:05.400Z,17.20
2019-05-01T10:55:33.843Z,17.30
2019-05-01T10:58:03.471Z,17.50
2019-05-01T11:00:32.432Z,17.60
2019-05-01T11:03:00.991Z,17.80
2019-05-01T11:05:29.523Z,17.80
2019-05-01T11:07:57.966Z,17.90
2019-05-01T11:10:26.431Z,18.10
2019-05-01T11:12:54.887Z,18.20
2019-05-01T11:15:23.347Z,18.20
2019-05-01T11:17:51.810Z,17.90
2019-05-01T11:20:20.365Z,17.40
2019-05-01T11:22:48.971Z,17.50
2019-05-01T11:25:19.264Z,17.50
2019-05-01T11:27:47.723Z,17.50
2019-05-01T11:30:16.313Z,17.40
2019-05-01T11:33:02.582Z,17.50
2019-05-01T11:35:32.759Z,17.60
2019-05-01T11:38:02.843Z,17.60
2019-05-01T11:40:33.137Z,17.30
2019-05-01T11:43:02.810Z,17.50
2019-05-01T11:45:31.488Z,17.60
2019-05-01T11:47:59.947Z,17.60
2019-05-01T11:50:28.387Z,17.80
2019-05-01T11:52:56.847Z,17.70
2019-05-01T11:55:25.303Z,17.50
2019-05-01T11:57:53.772Z,17.50
2019-05-01T12:00:22.556Z,17.60
2019-05-01T12:02:51.198Z,17.70
2019-05-01T12:05:19.743Z,17.50
2019-05-01T12:07:48.203Z,17.50
2019-05-01T12:10:17.012Z,17.50
2019-05-01T12:12:45.470Z,17.80
2019-05-01T12:15:14.370Z,17.90
2019-05-01T12:17:50.068Z,17.80
2019-05-01T12:20:20.644Z,17.80
2019-05-01T12:22:51.404Z,17.60
2019-05-01T12:25:19.491Z,17.60
2019-05-01T12:27:48.003Z,17.50
2019-05-01T12:30:17.738Z,17.50
2019-05-01T12:32:46.267Z,17.60
2019-05-01T12:35:14.864Z,17.60
2019-05-01T12:37:43.679Z,17.60
2019-05-01T12:40:15.255Z,17.90
2019-05-01T12:42:43.889Z,17.70
2019-05-01T12:45:14.903Z,17.60
2019-05-01T12:47:51.051Z,17.80
2019-05-01T12:50:21.423Z,17.90
2019-05-01T12:53:06.879Z,17.80
2019-05-01T12:55:46.135Z,17.60
2019-05-01T12:58:14.592Z,17.80
2019-05-01T13:00:50.496Z,18.10
2019-05-01T13:03:19.022Z,18.20
2019-05-01T13:05:47.607Z,18.10
2019-05-01T13:08:16.073Z,18.10
2019-05-01T13:10:44.584Z,17.90
2019-05-01T13:13:13.036Z,18.10
2019-05-01T13:15:41.583Z,17.90
2019-05-01T13:18:10.027Z,17.90
2019-05-01T13:20:38.483Z,18.20
2019-05-01T13:23:06.931Z,18.30
2019-05-01T13:25:35.471Z,18.30
2019-05-01T13:28:11.703Z,18.40
2019-05-01T13:30:58.082Z,18.30
2019-05-01T13:33:26.604Z,18.40
2019-05-01T13:35:55.067Z,18.70
2019-05-01T13:38:23.535Z,18.50
2019-05-01T13:40:52.066Z,18.70
2019-05-01T13:43:20.591Z,18.70
2019-05-01T13:45:49.125Z,19.00
2019-05-01T13:48:17.652Z,19.00
2019-05-01T13:50:46.234Z,18.60
2019-05-01T13:53:14.704Z,18.50
2019-05-01T13:55:43.155Z,18.20
2019-05-01T13:58:11.600Z,18.10
2019-05-01T14:00:40.060Z,17.70
2019-05-01T14:03:08.579Z,17.70
2019-05-01T14:05:37.043Z,18.10
2019-05-01T14:08:05.490Z,18.30
2019-05-01T14:10:34.035Z,18.40
2019-05-01T14:13:02.482Z,18.40
2019-05-01T14:15:30.951Z,18.70
2019-05-01T14:17:59.415Z,18.70
2019-05-01T14:20:45.778Z,18.70
2019-05-01T14:23:15.907Z,18.60
2019-05-01T14:26:02.444Z,18.50
2019-05-01T14:28:31.643Z,18.20
2019-05-01T14:31:00.092Z,18.30
2019-05-01T14:33:28.562Z,18.20
2019-05-01T14:35:57.011Z,18.10
2019-05-01T14:38:25.539Z,18.20
2019-05-01T14:40:54.123Z,18.20
2019-05-01T14:43:22.658Z,18.20
2019-05-01T14:45:51.187Z,18.30
2019-05-01T14:48:19.771Z,18.50
2019-05-01T14:50:48.375Z,18.20
2019-05-01T14:53:17.038Z,18.30
2019-05-01T14:55:45.503Z,18.40
2019-05-01T14:58:14.035Z,18.30
2019-05-01T15:00:42.550Z,18.00
2019-05-01T15:03:11.083Z,18.10
2019-05-01T15:05:39.530Z,18.10
2019-05-01T15:08:08.152Z,18.20
2019-05-01T15:10:36.595Z,18.20
2019-05-01T15:13:06.923Z,18.00
2019-05-01T15:15:53.659Z,18.00
2019-05-01T15:18:26.697Z,17.90
2019-05-01T15:20:55.179Z,18.00
2019-05-01T15:23:23.691Z,18.10
2019-05-01T15:25:52.151Z,18.20
2019-05-01T15:28:20.698Z,18.20
2019-05-01T15:30:49.151Z,18.20
2019-05-01T15:33:17.616Z,18.40
2019-05-01T15:35:46.295Z,18.40
2019-05-01T15:38:14.760Z,18.40
2019-05-01T15:40:56.621Z,18.30
2019-05-01T15:43:36.140Z,18.30
2019-05-01T15:46:08.114Z,18.40
2019-05-01T15:48:36.565Z,18.60
2019-05-01T15:51:05.023Z,18.50
2019-05-01T15:53:33.471Z,18.70
2019-05-01T15:56:01.931Z,18.90
2019-05-01T15:58:30.395Z,19.30
2019-05-01T16:00:58.856Z,18.70
2019-05-01T16:03:27.403Z,18.60
2019-05-01T16:05:55.856Z,18.40
2019-05-01T16:08:24.319Z,18.30
2019-05-01T16:11:09.263Z,18.20
2019-05-01T16:13:37.784Z,18.00
2019-05-01T16:16:06.384Z,18.00
2019-05-01T16:18:34.847Z,17.90
2019-05-01T16:21:03.295Z,17.70
2019-05-01T16:23:31.831Z,17.60
2019-05-01T16:26:00.354Z,17.80
2019-05-01T16:28:28.883Z,17.80
2019-05-01T16:30:57.704Z,17.80
2019-05-01T16:33:26.148Z,17.70
2019-05-01T16:35:54.611Z,17.70
2019-05-01T16:38:27.199Z,17.60
2019-05-01T16:40:57.307Z,17.70
2019-05-01T16:43:25.770Z,17.70
2019-05-01T16:45:54.223Z,17.90
2019-05-01T16:48:22.684Z,18.20
2019-05-01T16:50:51.128Z,18.50
2019-05-01T16:53:19.591Z,18.30
2019-05-01T16:55:48.126Z,18.00
2019-05-01T16:58:18.238Z,17.80
2019-05-01T17:01:03.459Z,17.70
2019-05-01T17:03:51.867Z,17.60
2019-05-01T17:06:38.128Z,17.70
2019-05-01T17:09:26.366Z,18.40
2019-05-01T17:11:54.895Z,18.70
2019-05-01T17:14:23.563Z,19.00
2019-05-01T17:16:52.099Z,19.40
2019-05-01T17:19:20.619Z,19.00
2019-05-01T17:21:49.074Z,18.50
2019-05-01T17:24:17.607Z,17.80
2019-05-01T17:26:46.067Z,17.60
2019-05-01T17:29:14.591Z,17.30
2019-05-01T17:31:43.049Z,17.00
2019-05-01T17:34:12.079Z,16.70
2019-05-01T17:36:40.523Z,16.50
2019-05-01T17:39:08.987Z,16.40
2019-05-01T17:41:37.435Z,16.30
2019-05-01T17:44:05.898Z,16.10
2019-05-01T17:46:34.347Z,16.00
2019-05-01T17:49:04.074Z,15.90
2019-05-01T17:51:32.993Z,15.80
2019-05-01T17:54:01.529Z,15.70
2019-05-01T17:56:29.975Z,15.60
2019-05-01T17:58:58.436Z,15.50
2019-05-01T18:01:40.856Z,15.40
2019-05-01T18:04:13.938Z,15.30
2019-05-01T18:06:46.574Z,15.10
2019-05-01T18:09:16.219Z,15.10
2019-05-01T18:11:47.360Z,15.10
2019-05-01T18:14:14.992Z,14.90
2019-05-01T18:16:43.537Z,14.90
2019-05-01T18:19:12.200Z,14.80
2019-05-01T18:21:46.880Z,14.60
2019-05-01T18:24:30.716Z,14.60
2019-05-01T18:27:03.579Z,14.50
2019-05-01T18:29:41.721Z,14.30
2019-05-01T18:32:11.404Z,14.00
2019-05-01T18:34:40.041Z,13.80
2019-05-01T18:37:10.375Z,13.70
2019-05-01T18:39:43.128Z,13.50
2019-05-01T18:42:13.359Z,13.40
2019-05-01T18:44:42.421Z,13.10
2019-05-01T18:47:12.641Z,13.00
2019-05-01T18:49:42.573Z,13.00
2019-05-01T18:52:11.506Z,12.90
2019-05-01T18:54:39.993Z,12.70
2019-05-01T18:57:08.512Z,12.40
2019-05-01T18:59:37.328Z,12.20
2019-05-01T19:02:06.245Z,11.80
2019-05-01T19:04:35.039Z,11.60
2019-05-01T19:07:04.096Z,11.50
2019-05-01T19:09:36.497Z,11.50
2019-05-01T19:12:05.514Z,11.70
2019-05-01T19:14:34.121Z,11.60
2019-05-01T19:17:02.949Z,11.50
2019-05-01T19:19:31.944Z,11.40
2019-05-01T19:22:00.757Z,11.30
2019-05-01T19:24:32.609Z,11.30
2019-05-01T19:26:59.991Z,11.30
2019-05-01T19:29:32.185Z,11.20
2019-05-01T19:31:59.571Z,11.10
2019-05-01T19:34:28.023Z,11.00
2019-05-01T19:36:57.178Z,10.90
2019-05-01T19:39:25.651Z,10.80
2019-05-01T19:41:54.747Z,10.80
2019-05-01T19:44:23.409Z,10.90
2019-05-01T19:46:52.172Z,10.90
2019-05-01T19:49:24.738Z,10.90
2019-05-01T19:51:55.358Z,11.00
2019-05-01T19:54:23.202Z,11.00
2019-05-01T19:56:52.051Z,11.00
2019-05-01T19:59:20.563Z,10.80
2019-05-01T20:01:49.629Z,10.80
2019-05-01T20:04:18.358Z,10.80
2019-05-01T20:06:46.899Z,10.80
2019-05-01T20:09:17.051Z,10.80
2019-05-01T20:11:46.273Z,10.70
2019-05-01T20:14:14.847Z,10.60
2019-05-01T20:16:44.093Z,10.40
2019-05-01T20:19:13.187Z,10.30
2019-05-01T20:21:41.970Z,10.30
2019-05-01T20:24:12.075Z,10.20
2019-05-01T20:26:40.756Z,10.10
2019-05-01T20:29:11.523Z,10.10
2019-05-01T20:31:40.206Z,10.00
2019-05-01T20:34:12.087Z,10.00
2019-05-01T20:36:39.114Z,10.00
2019-05-01T20:39:08.127Z,9.90
2019-05-01T20:41:36.662Z,9.90
2019-05-01T20:44:05.631Z,10.00
2019-05-01T20:46:34.154Z,10.00
2019-05-01T20:49:06.531Z,10.00
2019-05-01T20:51:32.848Z,10.10
2019-05-01T20:54:01.321Z,10.30
2019-05-01T20:56:31.418Z,10.40
2019-05-01T20:59:02.936Z,10.60
2019-05-01T21:01:31.036Z,10.80
2019-05-01T21:04:01.134Z,10.80
2019-05-01T21:06:31.311Z,10.90
2019-05-01T21:09:01.418Z,10.90
2019-05-01T21:11:34.511Z,10.70
2019-05-01T21:14:17.030Z,10.70
2019-05-01T21:16:37.931Z,10.60
2019-05-01T21:19:04.233Z,10.50
2019-05-01T21:21:34.387Z,10.50
2019-05-01T21:24:03.631Z,10.50
2019-05-01T21:26:33.584Z,10.40
2019-05-01T21:29:04.015Z,10.40
2019-05-01T21:31:34.154Z,10.40
2019-05-01T21:34:04.173Z,10.30
2019-05-01T21:36:32.976Z,10.30
2019-05-01T21:39:01.440Z,10.20
2019-05-01T21:41:29.964Z,10.10
2019-05-01T21:43:58.736Z,10.10
2019-05-01T21:46:27.183Z,10.00
2019-05-01T21:48:55.655Z,9.90
2019-05-01T21:51:24.107Z,9.90
2019-05-01T21:53:53.002Z,9.80
2019-05-01T21:56:21.630Z,9.80
2019-05-01T21:58:50.086Z,9.80
2019-05-01T22:01:18.752Z,9.70
2019-05-01T22:03:47.186Z,9.60
2019-05-01T22:06:16.666Z,9.50
2019-05-01T22:08:45.447Z,9.60
2019-05-01T22:11:13.891Z,9.60
2019-05-01T22:13:42.431Z,9.80
2019-05-01T22:16:22.367Z,9.90
2019-05-01T22:18:53.524Z,10.00
2019-05-01T22:21:26.399Z,9.90
2019-05-01T22:23:56.638Z,9.70
2019-05-01T22:26:26.722Z,9.30
2019-05-01T22:28:56.807Z,9.30
2019-05-01T22:31:26.907Z,9.30
2019-05-01T22:33:57.084Z,9.30
2019-05-01T22:36:25.540Z,9.30
2019-05-01T22:38:53.979Z,9.20
2019-05-01T22:41:22.435Z,9.30
2019-05-01T22:43:50.895Z,9.30
2019-05-01T22:46:20.983Z,9.30
2019-05-01T22:48:49.439Z,9.20
2019-05-01T22:51:19.587Z,9.30
2019-05-01T22:53:49.687Z,9.60
2019-05-01T22:56:18.131Z,9.60
2019-05-01T22:58:46.588Z,9.50
2019-05-01T23:01:18.205Z,9.30
2019-05-01T23:03:47.398Z,9.10
2019-05-01T23:06:17.042Z,8.90
2019-05-01T23:08:45.490Z,8.80
2019-05-01T23:11:20.057Z,8.70
2019-05-01T23:13:44.425Z,8.70
2019-05-01T23:16:13.687Z,8.80
2019-05-01T23:18:42.146Z,8.80
2019-05-01T23:21:14.404Z,8.90
2019-05-01T23:23:41.183Z,9.00
2019-05-01T23:26:11.573Z,9.00
2019-05-01T23:28:41.016Z,8.90
2019-05-01T23:31:09.627Z,8.70
2019-05-01T23:33:38.067Z,8.70
2019-05-01T23:36:06.747Z,8.50
2019-05-01T23:38:35.274Z,8.60
2019-05-01T23:41:03.714Z,8.60
2019-05-01T23:43:32.176Z,8.50
2019-05-01T23:46:01.060Z,8.50
2019-05-01T23:48:29.544Z,8.40
2019-05-01T23:50:57.979Z,8.40
2019-05-01T23:53:26.443Z,8.30
2019-05-01T23:55:59.958Z,8.10
2019-05-01T23:58:25.155Z,8.10
